Terminal Aerodrome Forecast
Issued by NWS

Current Version | Previous Version | Text Only | Print | Product List | Glossary On
Versions: 1 2 3 4 5 6 7 8 9 10 11 12 13 14 15 16
000
FTUS42 KTAE 231120
TAFDHN
TAF
KDHN 231120Z 2312/2412 22005KT 6SM -RA SCT015 OVC100
     FM231400 24012G20KT 6SM SHRA VCTS BKN025CB
     FM232100 22011KT P6SM -RA SCT025 OVC050
     FM240900 20006KT 5SM RA VCTS BKN015CB=

USA.gov is the U.S. government's official web portal to all federal, state and local government web resources and services.